createdAt,value
2023-12-14T00:00:19.467Z,5.59
2023-12-14T00:00:49.535Z,5.59
2023-12-14T00:01:19.577Z,5.59
2023-12-14T00:01:49.511Z,5.58
2023-12-14T00:02:19.537Z,5.58
2023-12-14T00:02:49.454Z,5.56
2023-12-14T00:03:19.443Z,5.56
2023-12-14T00:03:49.461Z,5.58
2023-12-14T00:04:19.498Z,5.56
2023-12-14T00:04:52.466Z,5.51
2023-12-14T00:05:37.624Z,5.51
2023-12-14T00:05:49.484Z,5.51
2023-12-14T00:06:19.523Z,5.49
2023-12-14T00:06:49.432Z,5.49
2023-12-14T00:07:19.382Z,5.48
2023-12-14T00:07:49.423Z,5.49
2023-12-14T00:08:19.394Z,5.51
2023-12-14T00:08:49.408Z,5.51
2023-12-14T00:09:19.412Z,5.51
2023-12-14T00:09:49.373Z,5.49
2023-12-14T00:10:19.376Z,5.49
2023-12-14T00:10:52.390Z,5.48
2023-12-14T00:11:37.477Z,5.47
2023-12-14T00:11:49.343Z,5.47
2023-12-14T00:12:19.336Z,5.45
2023-12-14T00:12:49.317Z,5.47
2023-12-14T00:13:19.381Z,5.47
2023-12-14T00:13:49.339Z,5.47
2023-12-14T00:14:19.352Z,5.48
2023-12-14T00:14:49.328Z,5.47
2023-12-14T00:15:19.313Z,5.47
2023-12-14T00:15:49.308Z,5.45
2023-12-14T00:16:19.318Z,5.47
2023-12-14T00:16:52.368Z,5.45
2023-12-14T00:17:37.415Z,5.45
2023-12-14T00:17:49.359Z,5.45
2023-12-14T00:18:19.338Z,5.45
2023-12-14T00:18:49.314Z,5.45
2023-12-14T00:19:19.257Z,5.45
2023-12-14T00:19:49.330Z,5.47
2023-12-14T00:20:19.331Z,5.44
2023-12-14T00:20:49.287Z,5.45
2023-12-14T00:21:19.246Z,5.47
2023-12-14T00:21:49.241Z,5.45
2023-12-14T00:22:19.221Z,5.47
2023-12-14T00:22:52.281Z,5.48
2023-12-14T00:23:37.354Z,5.49
2023-12-14T00:23:49.364Z,5.49
2023-12-14T00:24:19.212Z,5.49
2023-12-14T00:24:49.204Z,5.48
2023-12-14T00:25:19.254Z,5.49
2023-12-14T00:25:49.247Z,5.51
2023-12-14T00:26:19.280Z,5.51
2023-12-14T00:26:49.177Z,5.52
2023-12-14T00:27:19.171Z,5.49
2023-12-14T00:27:49.162Z,5.51
2023-12-14T00:28:19.159Z,5.49
2023-12-14T00:29:00.394Z,5.51
2023-12-14T00:29:37.267Z,5.52
2023-12-14T00:29:49.161Z,5.51
2023-12-14T00:30:19.208Z,5.49
2023-12-14T00:30:49.167Z,5.49
2023-12-14T00:31:19.141Z,5.48
2023-12-14T00:31:49.156Z,5.48
2023-12-14T00:32:19.131Z,5.47
2023-12-14T00:32:49.171Z,5.48
2023-12-14T00:33:19.156Z,5.45
2023-12-14T00:33:49.212Z,5.42
2023-12-14T00:34:19.096Z,5.41
2023-12-14T00:34:52.171Z,5.40
2023-12-14T00:35:37.211Z,5.42
2023-12-14T00:35:49.130Z,5.38
2023-12-14T00:36:19.083Z,5.38
2023-12-14T00:36:49.158Z,5.40
2023-12-14T00:37:19.065Z,5.38
2023-12-14T00:37:49.111Z,5.35
2023-12-14T00:38:19.043Z,5.35
2023-12-14T00:38:49.067Z,5.33
2023-12-14T00:39:19.065Z,5.32
2023-12-14T00:39:49.049Z,5.32
2023-12-14T00:40:19.029Z,5.32
2023-12-14T00:40:52.106Z,5.30
2023-12-14T00:41:37.164Z,5.29
2023-12-14T00:41:49.028Z,5.30
2023-12-14T00:42:19.021Z,5.32
2023-12-14T00:42:49.003Z,5.29
2023-12-14T00:43:19.259Z,5.26
2023-12-14T00:43:49.038Z,5.29
2023-12-14T00:44:19.098Z,5.29
2023-12-14T00:44:48.989Z,5.29
2023-12-14T00:45:18.979Z,5.30
2023-12-14T00:45:48.976Z,5.29
2023-12-14T00:46:18.968Z,5.29
2023-12-14T00:46:52.163Z,5.27
2023-12-14T00:47:37.691Z,5.26
2023-12-14T00:47:49.201Z,5.24
2023-12-14T00:48:18.984Z,5.23
2023-12-14T00:48:49.093Z,5.24
2023-12-14T00:49:18.935Z,5.23
2023-12-14T00:49:49.047Z,5.22
2023-12-14T00:50:18.916Z,5.19
2023-12-14T00:50:48.936Z,5.19
2023-12-14T00:51:18.926Z,5.17
2023-12-14T00:51:48.934Z,5.19
2023-12-14T00:52:18.911Z,5.19
2023-12-14T00:52:52.000Z,5.19
2023-12-14T00:53:37.213Z,5.19
2023-12-14T00:53:48.885Z,5.20
2023-12-14T00:54:18.948Z,5.19
2023-12-14T00:54:48.874Z,5.17
2023-12-14T00:55:18.877Z,5.15
2023-12-14T00:55:48.881Z,5.17
2023-12-14T00:56:21.085Z,5.15
2023-12-14T00:56:48.884Z,5.17
2023-12-14T00:57:18.873Z,5.15
2023-12-14T00:57:48.884Z,5.17
2023-12-14T00:58:18.849Z,5.19
2023-12-14T00:58:51.939Z,5.20
2023-12-14T00:59:37.305Z,5.20
2023-12-14T00:59:48.938Z,5.22
2023-12-14T01:00:18.853Z,5.19
2023-12-14T01:00:48.810Z,5.15
2023-12-14T01:01:18.832Z,5.14
2023-12-14T01:01:48.850Z,5.12
2023-12-14T01:02:18.881Z,5.09
2023-12-14T01:02:48.831Z,5.12
2023-12-14T01:03:18.812Z,5.08
2023-12-14T01:03:48.785Z,5.06
2023-12-14T01:04:18.776Z,5.06
2023-12-14T01:04:51.872Z,5.05
2023-12-14T01:05:36.917Z,5.06
2023-12-14T01:05:48.778Z,5.05
2023-12-14T01:06:18.796Z,5.04
2023-12-14T01:06:48.751Z,5.05
2023-12-14T01:07:18.776Z,5.04
2023-12-14T01:07:48.779Z,5.04
2023-12-14T01:08:18.751Z,5.04
2023-12-14T01:08:48.742Z,5.04
2023-12-14T01:09:18.715Z,5.04
2023-12-14T01:09:48.728Z,5.04
2023-12-14T01:10:18.718Z,5.02
2023-12-14T01:10:51.780Z,5.02
2023-12-14T01:11:36.836Z,5.02
2023-12-14T01:11:48.768Z,5.05
2023-12-14T01:12:18.735Z,5.04
2023-12-14T01:12:48.702Z,5.02
2023-12-14T01:13:18.672Z,5.01
2023-12-14T01:13:48.697Z,5.01
2023-12-14T01:14:18.719Z,5.01
2023-12-14T01:14:48.689Z,5.02
2023-12-14T01:15:18.667Z,5.02
2023-12-14T01:15:48.649Z,5.01
2023-12-14T01:16:18.679Z,5.02
2023-12-14T01:16:51.790Z,5.01
2023-12-14T01:17:36.778Z,5.04
2023-12-14T01:17:49.689Z,5.04
2023-12-14T01:18:18.727Z,5.02
2023-12-14T01:18:48.699Z,5.02
2023-12-14T01:19:18.612Z,5.04
2023-12-14T01:19:48.647Z,5.02
2023-12-14T01:20:18.631Z,5.04
2023-12-14T01:20:48.603Z,5.02
2023-12-14T01:21:18.616Z,5.05
2023-12-14T01:21:48.594Z,5.05
2023-12-14T01:22:18.587Z,5.06
2023-12-14T01:22:52.519Z,5.05
2023-12-14T01:23:36.708Z,5.04
2023-12-14T01:23:48.558Z,5.06
2023-12-14T01:24:18.574Z,5.05
2023-12-14T01:24:48.603Z,5.05
2023-12-14T01:25:18.546Z,5.05
2023-12-14T01:25:48.574Z,5.04
2023-12-14T01:26:18.553Z,5.04
2023-12-14T01:26:48.549Z,5.05
2023-12-14T01:27:18.526Z,5.04
2023-12-14T01:27:48.518Z,5.02
2023-12-14T01:28:18.520Z,5.02
2023-12-14T01:28:51.629Z,5.02
2023-12-14T01:29:36.642Z,5.02
2023-12-14T01:29:48.497Z,5.02
2023-12-14T01:30:18.514Z,5.01
2023-12-14T01:30:48.535Z,4.99
2023-12-14T01:31:18.490Z,4.97
2023-12-14T01:31:48.501Z,4.96
2023-12-14T01:32:18.473Z,4.97
2023-12-14T01:32:48.498Z,4.96
2023-12-14T01:33:18.636Z,4.97
2023-12-14T01:33:48.463Z,4.99
2023-12-14T01:34:18.503Z,5.01
2023-12-14T01:34:51.561Z,5.01
2023-12-14T01:35:36.566Z,5.01
2023-12-14T01:35:48.439Z,4.99
2023-12-14T01:36:18.447Z,4.99
2023-12-14T01:36:48.452Z,4.97
2023-12-14T01:37:18.446Z,5.01
2023-12-14T01:37:48.523Z,4.99
2023-12-14T01:38:18.417Z,5.01
2023-12-14T01:38:48.417Z,5.02
2023-12-14T01:39:18.421Z,5.04
2023-12-14T01:39:48.427Z,5.02
2023-12-14T01:40:18.409Z,5.01
2023-12-14T01:40:51.469Z,4.99
2023-12-14T01:41:36.497Z,5.02
2023-12-14T01:41:48.384Z,5.01
2023-12-14T01:42:18.437Z,4.97
2023-12-14T01:42:48.371Z,5.01
2023-12-14T01:43:18.362Z,4.96
2023-12-14T01:43:48.483Z,4.96
2023-12-14T01:44:18.357Z,4.94
2023-12-14T01:44:48.358Z,4.90
2023-12-14T01:45:18.351Z,4.91
2023-12-14T01:45:48.319Z,4.88
2023-12-14T01:46:18.376Z,4.87
2023-12-14T01:46:51.380Z,4.87
2023-12-14T01:47:36.471Z,4.87
2023-12-14T01:47:48.354Z,4.86
2023-12-14T01:48:18.402Z,4.87
2023-12-14T01:48:48.307Z,4.87
2023-12-14T01:49:18.324Z,4.87
2023-12-14T01:49:48.316Z,4.90
2023-12-14T01:50:18.343Z,4.86
2023-12-14T01:50:48.299Z,4.88
2023-12-14T01:51:18.294Z,4.87
2023-12-14T01:51:48.963Z,4.84
2023-12-14T01:52:18.264Z,4.86
2023-12-14T01:52:51.322Z,4.86
2023-12-14T01:53:36.406Z,4.87
2023-12-14T01:53:48.275Z,4.86
2023-12-14T01:54:18.267Z,4.86
2023-12-14T01:54:48.259Z,4.86
2023-12-14T01:55:18.241Z,4.86
2023-12-14T01:55:48.263Z,4.87
2023-12-14T01:56:18.300Z,4.88
2023-12-14T01:56:48.223Z,4.86
2023-12-14T01:57:18.224Z,4.86
2023-12-14T01:57:48.206Z,4.84
2023-12-14T01:58:18.232Z,4.84
2023-12-14T01:58:51.279Z,4.87
2023-12-14T01:59:36.329Z,4.84
2023-12-14T01:59:48.194Z,4.86
2023-12-14T02:00:18.171Z,4.83
2023-12-14T02:00:48.216Z,4.86
2023-12-14T02:01:18.203Z,4.86
2023-12-14T02:01:48.205Z,4.86
2023-12-14T02:02:18.203Z,4.83
2023-12-14T02:02:48.204Z,4.84
2023-12-14T02:03:18.168Z,4.86
2023-12-14T02:03:48.181Z,4.87
2023-12-14T02:04:18.257Z,4.87
2023-12-14T02:04:51.268Z,4.88
2023-12-14T02:05:36.341Z,4.90
2023-12-14T02:05:48.187Z,4.87
2023-12-14T02:06:18.135Z,4.86
2023-12-14T02:06:48.155Z,4.87
2023-12-14T02:07:18.112Z,4.88
2023-12-14T02:07:48.143Z,4.88
2023-12-14T02:08:18.116Z,4.88
2023-12-14T02:08:48.100Z,4.90
2023-12-14T02:09:18.130Z,4.91
2023-12-14T02:09:48.080Z,4.91
2023-12-14T02:10:18.070Z,4.91
2023-12-14T02:10:51.132Z,4.91
2023-12-14T02:11:36.423Z,4.90
2023-12-14T02:11:48.192Z,4.90
2023-12-14T02:12:18.102Z,4.90
2023-12-14T02:12:48.052Z,4.91
2023-12-14T02:13:18.055Z,4.94
2023-12-14T02:13:48.101Z,4.93
2023-12-14T02:14:18.061Z,4.91
2023-12-14T02:14:48.033Z,4.93
2023-12-14T02:15:18.020Z,4.90
2023-12-14T02:15:48.009Z,4.88
2023-12-14T02:16:18.019Z,4.91
2023-12-14T02:16:51.055Z,4.91
2023-12-14T02:17:36.967Z,4.93
2023-12-14T02:17:48.090Z,4.91
2023-12-14T02:18:18.046Z,4.93
2023-12-14T02:18:48.013Z,4.91
2023-12-14T02:19:18.030Z,4.93
2023-12-14T02:19:47.997Z,4.90
2023-12-14T02:20:17.992Z,4.91
2023-12-14T02:20:47.985Z,4.90
2023-12-14T02:21:17.958Z,4.90
2023-12-14T02:21:47.984Z,4.91
2023-12-14T02:22:18.019Z,4.93
2023-12-14T02:22:50.974Z,4.90
2023-12-14T02:23:36.466Z,4.88
2023-12-14T02:23:47.945Z,4.87
2023-12-14T02:24:17.956Z,4.87
2023-12-14T02:24:47.920Z,4.87
2023-12-14T02:25:17.943Z,4.86
2023-12-14T02:25:47.935Z,4.86
2023-12-14T02:26:17.999Z,4.86
2023-12-14T02:27:01.978Z,4.86
2023-12-14T02:27:18.527Z,4.86
2023-12-14T02:27:47.882Z,4.84
2023-12-14T02:28:17.881Z,4.86
2023-12-14T02:28:50.946Z,4.80
2023-12-14T02:29:36.112Z,4.80
2023-12-14T02:29:47.881Z,4.79
2023-12-14T02:30:17.906Z,4.80
2023-12-14T02:30:47.889Z,4.80
2023-12-14T02:31:17.893Z,4.79
2023-12-14T02:31:47.880Z,4.79
2023-12-14T02:32:17.859Z,4.77
2023-12-14T02:32:47.843Z,4.75
2023-12-14T02:33:17.866Z,4.75
2023-12-14T02:33:47.874Z,4.72
2023-12-14T02:34:17.838Z,4.71
2023-12-14T02:34:50.857Z,4.71
2023-12-14T02:35:35.950Z,4.71
2023-12-14T02:35:47.823Z,4.71
2023-12-14T02:36:17.826Z,4.69
2023-12-14T02:36:47.789Z,4.68
2023-12-14T02:37:17.834Z,4.68
2023-12-14T02:37:47.882Z,4.65
2023-12-14T02:38:17.861Z,4.67
2023-12-14T02:38:47.899Z,4.65
2023-12-14T02:39:17.822Z,4.65
2023-12-14T02:39:47.767Z,4.65
2023-12-14T02:40:17.757Z,4.65
2023-12-14T02:40:50.800Z,4.64
2023-12-14T02:41:35.866Z,4.64
2023-12-14T02:41:47.792Z,4.62
2023-12-14T02:42:17.737Z,4.62
2023-12-14T02:42:47.723Z,4.61
2023-12-14T02:43:17.772Z,4.61
2023-12-14T02:43:47.746Z,4.62
2023-12-14T02:44:17.840Z,4.61
2023-12-14T02:44:47.790Z,4.61
2023-12-14T02:45:17.739Z,4.61
2023-12-14T02:45:47.717Z,4.61
2023-12-14T02:46:17.686Z,4.61
2023-12-14T02:46:51.009Z,4.61
2023-12-14T02:47:35.857Z,4.62
2023-12-14T02:47:47.696Z,4.59
2023-12-14T02:48:17.753Z,4.57
2023-12-14T02:48:47.663Z,4.57
2023-12-14T02:49:17.690Z,4.57
2023-12-14T02:49:47.708Z,4.56
2023-12-14T02:50:17.723Z,4.57
2023-12-14T02:50:47.629Z,4.61
2023-12-14T02:51:17.646Z,4.61
2023-12-14T02:51:47.612Z,4.59
2023-12-14T02:52:17.625Z,4.59
2023-12-14T02:52:50.672Z,4.59
2023-12-14T02:53:35.735Z,4.61
2023-12-14T02:53:47.602Z,4.59
2023-12-14T02:54:17.622Z,4.59
2023-12-14T02:54:47.615Z,4.62
2023-12-14T02:55:17.590Z,4.61
2023-12-14T02:55:47.606Z,4.61
2023-12-14T02:56:17.621Z,4.59
2023-12-14T02:56:47.614Z,4.59
2023-12-14T02:57:17.580Z,4.59
2023-12-14T02:57:47.567Z,4.61
2023-12-14T02:58:17.550Z,4.57
2023-12-14T02:58:50.592Z,4.56
2023-12-14T02:59:35.677Z,4.57
2023-12-14T02:59:47.565Z,4.57
2023-12-14T03:00:17.541Z,4.59
2023-12-14T03:00:47.561Z,4.57
2023-12-14T03:01:17.566Z,4.57
2023-12-14T03:01:47.590Z,4.56
2023-12-14T03:02:17.572Z,4.56
2023-12-14T03:02:47.505Z,4.57
2023-12-14T03:03:17.513Z,4.57
2023-12-14T03:03:47.575Z,4.54
2023-12-14T03:04:17.503Z,4.53
2023-12-14T03:04:50.529Z,4.53
2023-12-14T03:05:35.635Z,4.53
2023-12-14T03:05:47.498Z,4.54
2023-12-14T03:06:17.532Z,4.53
2023-12-14T03:06:47.475Z,4.53
2023-12-14T03:07:17.451Z,4.53
2023-12-14T03:07:47.472Z,4.53
2023-12-14T03:08:17.455Z,4.51
2023-12-14T03:08:47.509Z,4.51
2023-12-14T03:09:17.459Z,4.53
2023-12-14T03:09:47.423Z,4.53
2023-12-14T03:10:17.426Z,4.56
2023-12-14T03:10:50.509Z,4.54
2023-12-14T03:11:35.545Z,4.54
2023-12-14T03:11:47.422Z,4.54
2023-12-14T03:12:17.417Z,4.53
2023-12-14T03:12:47.405Z,4.53
2023-12-14T03:13:18.123Z,4.53
2023-12-14T03:13:48.631Z,4.54
2023-12-14T03:14:17.915Z,4.54
2023-12-14T03:14:47.848Z,4.54
2023-12-14T03:15:18.058Z,4.54
2023-12-14T03:15:48.046Z,4.51
2023-12-14T03:16:18.078Z,4.56
2023-12-14T03:16:50.420Z,4.53
2023-12-14T03:17:35.588Z,4.53
2023-12-14T03:17:48.084Z,4.51
2023-12-14T03:18:18.139Z,4.51
2023-12-14T03:18:48.085Z,4.51
2023-12-14T03:19:18.102Z,4.53
2023-12-14T03:19:48.561Z,4.53
2023-12-14T03:20:18.161Z,4.53
2023-12-14T03:20:47.676Z,4.54
2023-12-14T03:21:17.348Z,4.51
2023-12-14T03:21:48.062Z,4.50
2023-12-14T03:22:17.359Z,4.51
2023-12-14T03:22:50.350Z,4.47
2023-12-14T03:23:35.410Z,4.49
2023-12-14T03:23:47.367Z,4.53
2023-12-14T03:24:17.401Z,4.51
2023-12-14T03:24:47.328Z,4.53
2023-12-14T03:25:19.045Z,4.51
2023-12-14T03:25:47.333Z,4.53
2023-12-14T03:26:17.360Z,4.53
2023-12-14T03:26:47.246Z,4.50
2023-12-14T03:27:17.467Z,4.53
2023-12-14T03:27:47.263Z,4.47
2023-12-14T03:28:17.272Z,4.50
2023-12-14T03:28:50.876Z,4.50
2023-12-14T03:29:35.558Z,4.49
2023-12-14T03:29:47.217Z,4.50
2023-12-14T03:30:17.243Z,4.50
2023-12-14T03:30:47.294Z,4.51
2023-12-14T03:31:18.271Z,4.51
2023-12-14T03:31:47.308Z,4.51
2023-12-14T03:32:17.233Z,4.50
2023-12-14T03:32:47.261Z,4.49
2023-12-14T03:33:17.221Z,4.49
2023-12-14T03:33:47.301Z,4.47
2023-12-14T03:34:17.162Z,4.47
2023-12-14T03:34:50.232Z,4.50
2023-12-14T03:35:35.288Z,4.51
2023-12-14T03:35:47.169Z,4.53
2023-12-14T03:36:17.168Z,4.53
2023-12-14T03:36:47.158Z,4.50
2023-12-14T03:37:17.147Z,4.51
2023-12-14T03:37:47.164Z,4.53
2023-12-14T03:38:17.139Z,4.54
2023-12-14T03:38:47.164Z,4.51
2023-12-14T03:39:17.109Z,4.51
2023-12-14T03:39:47.123Z,4.53
2023-12-14T03:40:17.165Z,4.51
2023-12-14T03:40:50.173Z,4.50
2023-12-14T03:41:35.243Z,4.50
2023-12-14T03:41:47.088Z,4.50
2023-12-14T03:42:17.071Z,4.50
2023-12-14T03:42:47.087Z,4.53
2023-12-14T03:43:17.069Z,4.56
2023-12-14T03:43:47.097Z,4.53
2023-12-14T03:44:17.134Z,4.56
2023-12-14T03:44:47.067Z,4.54
2023-12-14T03:45:17.065Z,4.56
2023-12-14T03:45:47.095Z,4.56
2023-12-14T03:46:17.048Z,4.54
2023-12-14T03:46:50.107Z,4.53
2023-12-14T03:47:35.188Z,4.54
2023-12-14T03:47:47.066Z,4.54
2023-12-14T03:48:17.068Z,4.54
2023-12-14T03:48:47.078Z,4.53
2023-12-14T03:49:17.062Z,4.51
2023-12-14T03:49:47.053Z,4.53
2023-12-14T03:50:17.543Z,4.51
2023-12-14T03:50:47.103Z,4.51
2023-12-14T03:51:16.990Z,4.51
2023-12-14T03:51:47.050Z,4.50
2023-12-14T03:52:16.997Z,4.47
2023-12-14T03:52:50.028Z,4.46
2023-12-14T03:53:35.085Z,4.46
2023-12-14T03:53:47.005Z,4.46
2023-12-14T03:54:16.960Z,4.44
2023-12-14T03:54:46.993Z,4.43
2023-12-14T03:55:17.028Z,4.43
2023-12-14T03:55:47.017Z,4.43
2023-12-14T03:56:16.958Z,4.36
2023-12-14T03:56:46.948Z,4.38
2023-12-14T03:57:16.926Z,4.38
2023-12-14T03:57:46.957Z,4.36
2023-12-14T03:58:16.906Z,4.36
2023-12-14T03:58:49.957Z,4.36
2023-12-14T03:59:35.043Z,4.35
2023-12-14T03:59:46.978Z,4.35
2023-12-14T04:00:16.939Z,4.36
2023-12-14T04:00:46.887Z,4.39
2023-12-14T04:01:16.949Z,4.38
2023-12-14T04:01:46.888Z,4.36
2023-12-14T04:02:16.893Z,4.38
2023-12-14T04:02:46.908Z,4.38
2023-12-14T04:03:16.921Z,4.38
2023-12-14T04:03:46.867Z,4.38
2023-12-14T04:04:16.875Z,4.39
2023-12-14T04:04:49.963Z,4.42
2023-12-14T04:05:35.054Z,4.36
2023-12-14T04:05:46.926Z,4.36
2023-12-14T04:06:16.892Z,4.35
2023-12-14T04:06:46.864Z,4.36
2023-12-14T04:07:16.847Z,4.35
2023-12-14T04:07:46.882Z,4.34
2023-12-14T04:08:16.907Z,4.35
2023-12-14T04:08:46.823Z,4.34
2023-12-14T04:09:16.817Z,4.36
2023-12-14T04:09:46.808Z,4.34
2023-12-14T04:10:16.797Z,4.36
2023-12-14T04:10:49.823Z,4.34
2023-12-14T04:11:34.904Z,4.35
2023-12-14T04:11:46.831Z,4.34
2023-12-14T04:12:16.782Z,4.34
2023-12-14T04:12:46.808Z,4.34
2023-12-14T04:13:16.758Z,4.32
2023-12-14T04:13:46.836Z,4.36
2023-12-14T04:14:16.808Z,4.35
2023-12-14T04:14:46.753Z,4.35
2023-12-14T04:15:16.749Z,4.35
2023-12-14T04:15:46.766Z,4.35
2023-12-14T04:16:17.812Z,4.35
2023-12-14T04:16:49.810Z,4.35
2023-12-14T04:17:34.900Z,4.34
2023-12-14T04:17:46.802Z,4.32
2023-12-14T04:18:16.791Z,4.32
2023-12-14T04:18:46.822Z,4.34
2023-12-14T04:19:16.725Z,4.34
2023-12-14T04:19:46.713Z,4.34
2023-12-14T04:20:16.711Z,4.34
2023-12-14T04:20:46.686Z,4.35
2023-12-14T04:21:16.775Z,4.35
2023-12-14T04:21:46.688Z,4.35
2023-12-14T04:22:16.724Z,4.35
2023-12-14T04:22:49.808Z,4.35
2023-12-14T04:23:34.778Z,4.36
2023-12-14T04:23:46.652Z,4.32
2023-12-14T04:24:16.650Z,4.34
2023-12-14T04:24:46.639Z,4.29
2023-12-14T04:25:16.654Z,4.32
2023-12-14T04:25:46.682Z,4.34
2023-12-14T04:26:16.617Z,4.34
2023-12-14T04:26:46.635Z,4.34
2023-12-14T04:27:16.622Z,4.35
2023-12-14T04:27:46.624Z,4.35
2023-12-14T04:28:16.628Z,4.36
2023-12-14T04:28:49.674Z,4.38
2023-12-14T04:29:34.716Z,4.35
2023-12-14T04:29:46.587Z,4.34
2023-12-14T04:30:16.671Z,4.34
2023-12-14T04:30:46.608Z,4.35
2023-12-14T04:31:16.648Z,4.34
2023-12-14T04:31:46.654Z,4.36
2023-12-14T04:32:16.597Z,4.35
2023-12-14T04:32:46.746Z,4.35
2023-12-14T04:33:16.631Z,4.34
2023-12-14T04:33:46.597Z,4.38
2023-12-14T04:34:16.686Z,4.35
2023-12-14T04:34:49.603Z,4.39
2023-12-14T04:35:34.649Z,4.38
2023-12-14T04:35:46.528Z,4.38
2023-12-14T04:36:16.528Z,4.38
2023-12-14T04:36:46.539Z,4.39
2023-12-14T04:37:16.511Z,4.36
2023-12-14T04:37:46.532Z,4.42
2023-12-14T04:38:16.554Z,4.42
2023-12-14T04:38:46.500Z,4.42
2023-12-14T04:39:16.502Z,4.42
2023-12-14T04:39:46.478Z,4.39
2023-12-14T04:40:16.483Z,4.39
2023-12-14T04:40:49.591Z,4.43
2023-12-14T04:41:34.648Z,4.39
2023-12-14T04:41:46.462Z,4.39
2023-12-14T04:42:16.468Z,4.38
2023-12-14T04:42:46.475Z,4.42
2023-12-14T04:43:16.466Z,4.43
2023-12-14T04:43:46.495Z,4.43
2023-12-14T04:44:16.483Z,4.44
2023-12-14T04:44:46.437Z,4.43
2023-12-14T04:45:16.443Z,4.43
2023-12-14T04:45:46.414Z,4.39
2023-12-14T04:46:16.414Z,4.38
2023-12-14T04:46:49.692Z,4.39
2023-12-14T04:47:34.613Z,4.38
2023-12-14T04:47:46.662Z,4.36
2023-12-14T04:48:16.962Z,4.34
2023-12-14T04:48:48.973Z,4.36
2023-12-14T04:49:16.836Z,4.34
2023-12-14T04:49:46.639Z,4.32
2023-12-14T04:50:16.792Z,4.34
2023-12-14T04:50:46.928Z,4.31
2023-12-14T04:51:16.984Z,4.31
2023-12-14T04:51:47.431Z,4.29
2023-12-14T04:52:16.960Z,4.29
2023-12-14T04:52:49.412Z,4.29
2023-12-14T04:53:34.711Z,4.28
2023-12-14T04:53:46.683Z,4.29
2023-12-14T04:54:16.991Z,4.28
2023-12-14T04:54:46.453Z,4.31
2023-12-14T04:55:16.476Z,4.31
2023-12-14T04:55:46.611Z,4.29
2023-12-14T04:56:16.489Z,4.29
2023-12-14T04:56:46.636Z,4.28
2023-12-14T04:57:16.470Z,4.28
2023-12-14T04:57:46.400Z,4.26
2023-12-14T04:58:16.340Z,4.25
2023-12-14T04:58:49.338Z,4.26
2023-12-14T04:59:34.406Z,4.26
2023-12-14T04:59:46.296Z,4.25
2023-12-14T05:00:16.328Z,4.26
2023-12-14T05:00:46.347Z,4.25
2023-12-14T05:01:16.313Z,4.25
2023-12-14T05:01:46.299Z,4.25
2023-12-14T05:02:16.286Z,4.25
2023-12-14T05:02:54.296Z,4.25
2023-12-14T05:03:16.316Z,4.25
2023-12-14T05:03:46.348Z,4.25
2023-12-14T05:04:16.266Z,4.25
2023-12-14T05:04:49.301Z,4.21
2023-12-14T05:05:34.418Z,4.25
2023-12-14T05:05:46.325Z,4.26
2023-12-14T05:06:16.534Z,4.25
2023-12-14T05:06:46.233Z,4.24
2023-12-14T05:07:16.247Z,4.24
2023-12-14T05:07:46.277Z,4.24
2023-12-14T05:08:16.308Z,4.25
2023-12-14T05:08:46.183Z,4.25
2023-12-14T05:09:16.216Z,4.25
2023-12-14T05:09:46.189Z,4.26
2023-12-14T05:10:16.192Z,4.28
2023-12-14T05:10:49.229Z,4.28
2023-12-14T05:11:34.273Z,4.29
2023-12-14T05:11:46.160Z,4.26
2023-12-14T05:12:16.172Z,4.26
2023-12-14T05:12:46.166Z,4.25
2023-12-14T05:13:16.130Z,4.26
2023-12-14T05:13:46.157Z,4.29
2023-12-14T05:14:16.231Z,4.29
2023-12-14T05:14:46.143Z,4.28
2023-12-14T05:15:16.136Z,4.26
2023-12-14T05:15:46.167Z,4.29
2023-12-14T05:16:16.129Z,4.29
2023-12-14T05:16:49.145Z,4.28
2023-12-14T05:17:34.242Z,4.28
2023-12-14T05:17:46.167Z,4.29
2023-12-14T05:18:16.160Z,4.29
2023-12-14T05:18:46.135Z,4.29
2023-12-14T05:19:16.144Z,4.29
2023-12-14T05:19:46.100Z,4.31
2023-12-14T05:20:16.119Z,4.31
2023-12-14T05:20:46.064Z,4.31
2023-12-14T05:21:16.077Z,4.32
2023-12-14T05:21:46.059Z,4.32
2023-12-14T05:22:16.060Z,4.31
2023-12-14T05:22:49.164Z,4.29
2023-12-14T05:23:34.141Z,4.29
2023-12-14T05:23:46.069Z,4.31
2023-12-14T05:24:16.047Z,4.31
2023-12-14T05:24:46.075Z,4.29
2023-12-14T05:25:16.003Z,4.31
2023-12-14T05:25:46.031Z,4.32
2023-12-14T05:26:16.055Z,4.31
2023-12-14T05:26:46.039Z,4.29
2023-12-14T05:27:16.012Z,4.32
2023-12-14T05:27:45.991Z,4.32
2023-12-14T05:28:15.996Z,4.32
2023-12-14T05:28:49.048Z,4.29
2023-12-14T05:29:34.121Z,4.28
2023-12-14T05:29:45.968Z,4.28
2023-12-14T05:30:16.043Z,4.29
2023-12-14T05:30:45.985Z,4.29
2023-12-14T05:31:15.979Z,4.26
2023-12-14T05:31:45.966Z,4.28
2023-12-14T05:32:15.948Z,4.31
2023-12-14T05:32:46.001Z,4.31
2023-12-14T05:33:16.042Z,4.35
2023-12-14T05:33:46.017Z,4.29
2023-12-14T05:34:15.950Z,4.32
2023-12-14T05:34:48.986Z,4.34
2023-12-14T05:35:34.042Z,4.32
2023-12-14T05:35:45.941Z,4.34
2023-12-14T05:36:15.897Z,4.36
2023-12-14T05:36:45.951Z,4.35
2023-12-14T05:37:15.904Z,4.36
2023-12-14T05:37:45.899Z,4.34
2023-12-14T05:38:16.003Z,4.34
2023-12-14T05:38:45.886Z,4.34
2023-12-14T05:39:15.888Z,4.32
2023-12-14T05:39:45.867Z,4.29
2023-12-14T05:40:15.918Z,4.29
2023-12-14T05:40:48.897Z,4.28
2023-12-14T05:41:33.973Z,4.28
2023-12-14T05:41:45.857Z,4.26
2023-12-14T05:42:15.879Z,4.28
2023-12-14T05:42:45.859Z,4.28
2023-12-14T05:43:15.874Z,4.28
2023-12-14T05:43:45.841Z,4.26
2023-12-14T05:44:15.869Z,4.28
2023-12-14T05:44:45.832Z,4.28
2023-12-14T05:45:15.833Z,4.26
2023-12-14T05:45:45.814Z,4.28
2023-12-14T05:46:15.802Z,4.26
2023-12-14T05:46:48.866Z,4.25
2023-12-14T05:47:33.972Z,4.24
2023-12-14T05:47:45.876Z,4.26
2023-12-14T05:48:15.960Z,4.21
2023-12-14T05:48:45.786Z,4.24
2023-12-14T05:49:15.828Z,4.21
2023-12-14T05:49:45.766Z,4.21
2023-12-14T05:50:15.872Z,4.21
2023-12-14T05:50:45.758Z,4.21
2023-12-14T05:51:15.755Z,4.21
2023-12-14T05:51:45.782Z,4.21
2023-12-14T05:52:15.885Z,4.21
2023-12-14T05:52:48.819Z,4.21
2023-12-14T05:53:33.871Z,4.21
2023-12-14T05:53:45.726Z,4.24
2023-12-14T05:54:15.730Z,4.21
2023-12-14T05:54:45.713Z,4.21
2023-12-14T05:55:15.707Z,4.20
2023-12-14T05:55:45.735Z,4.20
2023-12-14T05:56:15.786Z,4.17
2023-12-14T05:56:45.703Z,4.18
2023-12-14T05:57:15.697Z,4.18
2023-12-14T05:57:45.670Z,4.17
2023-12-14T05:58:15.677Z,4.17
2023-12-14T05:58:48.744Z,4.16
2023-12-14T05:59:33.791Z,4.16
2023-12-14T05:59:45.663Z,4.17
2023-12-14T06:00:15.648Z,4.16
2023-12-14T06:00:45.669Z,4.17
2023-12-14T06:01:15.709Z,4.16
2023-12-14T06:01:45.743Z,4.16
2023-12-14T06:02:15.716Z,4.16
2023-12-14T06:02:45.801Z,4.14
2023-12-14T06:03:15.647Z,4.17
2023-12-14T06:03:45.662Z,4.13
2023-12-14T06:04:15.641Z,4.13
2023-12-14T06:04:48.696Z,4.10
2023-12-14T06:05:33.841Z,4.11
2023-12-14T06:05:45.664Z,4.13
2023-12-14T06:06:15.780Z,4.11
2023-12-14T06:06:45.607Z,4.10
2023-12-14T06:07:15.624Z,4.11
2023-12-14T06:07:45.593Z,4.10
2023-12-14T06:08:15.671Z,4.10
2023-12-14T06:08:45.566Z,4.10
2023-12-14T06:09:15.572Z,4.10
2023-12-14T06:09:45.567Z,4.08
2023-12-14T06:10:15.594Z,4.07
2023-12-14T06:10:48.664Z,4.08
2023-12-14T06:11:33.667Z,4.10
2023-12-14T06:11:45.537Z,4.07
2023-12-14T06:12:15.560Z,4.08
2023-12-14T06:12:45.547Z,4.10
2023-12-14T06:13:16.020Z,4.07
2023-12-14T06:13:45.564Z,4.08
2023-12-14T06:14:15.544Z,4.04
2023-12-14T06:14:45.519Z,4.07
2023-12-14T06:15:15.522Z,4.08
2023-12-14T06:15:45.507Z,4.10
2023-12-14T06:16:15.913Z,4.10
2023-12-14T06:16:48.554Z,4.10
2023-12-14T06:17:33.722Z,4.10
2023-12-14T06:17:45.520Z,4.10
2023-12-14T06:18:15.588Z,4.11
2023-12-14T06:18:45.554Z,4.10
2023-12-14T06:19:15.568Z,4.11
2023-12-14T06:19:45.452Z,4.11
2023-12-14T06:20:15.552Z,4.13
2023-12-14T06:20:45.456Z,4.11
2023-12-14T06:21:15.481Z,4.11
2023-12-14T06:21:45.476Z,4.11
2023-12-14T06:22:15.424Z,4.11
2023-12-14T06:22:48.451Z,4.13
2023-12-14T06:23:33.560Z,4.11
2023-12-14T06:23:46.055Z,4.11
2023-12-14T06:24:15.427Z,4.13
2023-12-14T06:24:45.459Z,4.13
2023-12-14T06:25:15.430Z,4.13
2023-12-14T06:25:45.417Z,4.11
2023-12-14T06:26:15.452Z,4.13
2023-12-14T06:26:45.379Z,4.13
2023-12-14T06:27:15.395Z,4.13
2023-12-14T06:27:45.373Z,4.11
2023-12-14T06:28:15.381Z,4.10
2023-12-14T06:28:48.418Z,4.13
2023-12-14T06:29:33.514Z,4.13
2023-12-14T06:29:45.389Z,4.13
2023-12-14T06:30:15.373Z,4.16
2023-12-14T06:30:45.374Z,4.13
2023-12-14T06:31:15.460Z,4.14
2023-12-14T06:31:45.336Z,4.14
2023-12-14T06:32:15.363Z,4.14
2023-12-14T06:32:45.383Z,4.16
2023-12-14T06:33:15.425Z,4.17
2023-12-14T06:33:45.398Z,4.18
2023-12-14T06:34:15.354Z,4.18
2023-12-14T06:34:48.353Z,4.17
2023-12-14T06:35:33.420Z,4.18
2023-12-14T06:35:45.314Z,4.16
2023-12-14T06:36:15.272Z,4.17
2023-12-14T06:36:45.296Z,4.16
2023-12-14T06:37:15.310Z,4.14
2023-12-14T06:37:45.377Z,4.14
2023-12-14T06:38:15.297Z,4.14
2023-12-14T06:38:45.270Z,4.14
2023-12-14T06:39:16.880Z,4.16